createdAt,value
2023-02-03T00:01:22.855Z,6.40
2023-02-03T00:03:49.466Z,6.38
2023-02-03T00:06:16.097Z,6.31
2023-02-03T00:08:42.492Z,6.35
2023-02-03T00:11:09.064Z,6.33
2023-02-03T00:13:35.893Z,6.35
2023-02-03T00:16:02.391Z,6.36
2023-02-03T00:18:28.881Z,6.35
2023-02-03T00:20:55.306Z,6.37
2023-02-03T00:23:21.727Z,6.41
2023-02-03T00:25:48.129Z,6.47
2023-02-03T00:28:14.653Z,6.53
2023-02-03T00:30:41.157Z,6.58
2023-02-03T00:33:07.542Z,6.65
2023-02-03T00:35:33.894Z,6.75
2023-02-03T00:38:00.328Z,6.87
2023-02-03T00:40:27.788Z,6.95
2023-02-03T00:42:54.985Z,6.99
2023-02-03T00:45:21.601Z,7.07
2023-02-03T00:47:48.019Z,7.14
2023-02-03T00:50:14.495Z,7.21
2023-02-03T00:52:41.087Z,7.30
2023-02-03T00:55:08.140Z,7.41
2023-02-03T00:57:34.504Z,7.51
2023-02-03T01:00:00.934Z,7.54
2023-02-03T01:02:27.584Z,7.63
2023-02-03T01:04:54.088Z,7.66
2023-02-03T01:07:20.517Z,7.68
2023-02-03T01:09:48.471Z,7.74
2023-02-03T01:12:15.134Z,7.78
2023-02-03T01:14:41.521Z,7.85
2023-02-03T01:17:09.336Z,7.89
2023-02-03T01:19:35.759Z,7.96
2023-02-03T01:22:02.253Z,8.03
2023-02-03T01:24:30.649Z,8.05
2023-02-03T01:26:57.048Z,8.10
2023-02-03T01:29:23.580Z,8.11
2023-02-03T01:31:50.216Z,8.14
2023-02-03T01:34:18.369Z,8.17
2023-02-03T01:36:46.668Z,8.23
2023-02-03T01:39:13.220Z,8.24
2023-02-03T01:41:40.536Z,8.28
2023-02-03T01:44:43.966Z,8.28
2023-02-03T01:47:40.143Z,8.31
2023-02-03T01:50:22.993Z,8.26
2023-02-03T01:52:54.589Z,8.24
2023-02-03T01:55:25.999Z,8.25
2023-02-03T01:58:14.933Z,8.28
2023-02-03T02:00:42.176Z,8.33
2023-02-03T02:03:09.184Z,8.33
2023-02-03T02:05:45.479Z,8.36
2023-02-03T02:08:13.715Z,8.35
2023-02-03T02:10:40.188Z,8.35
2023-02-03T02:13:06.914Z,8.34
2023-02-03T02:15:40.783Z,8.32
2023-02-03T02:18:20.483Z,8.38
2023-02-03T02:21:01.372Z,8.38
2023-02-03T02:24:03.509Z,8.34
2023-02-03T02:26:50.621Z,8.33
2023-02-03T02:29:50.109Z,8.30
2023-02-03T02:32:42.646Z,8.30
2023-02-03T02:35:34.104Z,8.35
2023-02-03T02:38:06.775Z,8.35
2023-02-03T02:40:46.067Z,8.34
2023-02-03T02:43:22.577Z,8.36
2023-02-03T02:46:28.969Z,8.37
2023-02-03T02:49:04.598Z,8.38
2023-02-03T02:51:32.225Z,8.41
2023-02-03T02:54:05.603Z,8.44
2023-02-03T02:56:34.289Z,8.43
2023-02-03T02:59:03.944Z,8.41
2023-02-03T03:01:30.677Z,8.43
2023-02-03T03:03:58.605Z,8.44
2023-02-03T03:06:52.144Z,8.41
2023-02-03T03:09:23.538Z,8.41
2023-02-03T03:12:02.192Z,8.41
2023-02-03T03:14:32.279Z,8.47
2023-02-03T03:17:06.208Z,8.52
2023-02-03T03:19:37.221Z,8.51
2023-02-03T03:22:07.408Z,8.55
2023-02-03T03:24:41.564Z,8.50
2023-02-03T03:27:24.310Z,8.55
2023-02-03T03:29:56.422Z,8.55
2023-02-03T03:32:23.201Z,8.54
2023-02-03T03:34:50.605Z,8.49
2023-02-03T03:37:30.698Z,8.53
2023-02-03T03:39:59.757Z,8.49
2023-02-03T03:42:40.809Z,8.51
2023-02-03T03:45:14.818Z,8.52
2023-02-03T03:47:55.636Z,8.48
2023-02-03T03:50:27.995Z,8.49
2023-02-03T03:52:57.408Z,8.54
2023-02-03T03:55:27.564Z,8.59
2023-02-03T03:58:02.463Z,8.61
2023-02-03T04:00:32.094Z,8.61
2023-02-03T04:03:05.003Z,8.55
2023-02-03T04:05:33.284Z,8.54
2023-02-03T04:08:00.935Z,8.54
2023-02-03T04:10:31.664Z,8.53
2023-02-03T04:12:58.554Z,8.54
2023-02-03T04:15:25.173Z,8.54
2023-02-03T04:17:51.618Z,8.54
2023-02-03T04:20:18.305Z,8.53
2023-02-03T04:22:46.357Z,8.58
2023-02-03T04:25:12.912Z,8.59
2023-02-03T04:27:39.347Z,8.60
2023-02-03T04:30:06.447Z,8.55
2023-02-03T04:32:34.073Z,8.48
2023-02-03T04:35:00.513Z,8.45
2023-02-03T04:37:27.560Z,8.48
2023-02-03T04:39:55.357Z,8.53
2023-02-03T04:42:23.179Z,8.47
2023-02-03T04:44:49.971Z,8.44
2023-02-03T04:47:17.807Z,8.48
2023-02-03T04:49:44.474Z,8.55
2023-02-03T04:52:12.093Z,8.58
2023-02-03T04:54:38.640Z,8.49
2023-02-03T04:57:05.557Z,8.51
2023-02-03T04:59:32.305Z,8.53
2023-02-03T05:01:58.807Z,8.54
2023-02-03T05:04:25.280Z,8.53
2023-02-03T05:06:51.681Z,8.54
2023-02-03T05:09:18.225Z,8.51
2023-02-03T05:11:47.303Z,8.51
2023-02-03T05:14:13.657Z,8.49
2023-02-03T05:16:40.115Z,8.42
2023-02-03T05:19:06.553Z,8.48
2023-02-03T05:21:33.725Z,8.51
2023-02-03T05:24:00.390Z,8.44
2023-02-03T05:26:26.872Z,8.48
2023-02-03T05:28:55.013Z,8.48
2023-02-03T05:31:22.562Z,8.44
2023-02-03T05:33:48.982Z,8.45
2023-02-03T05:36:15.369Z,8.40
2023-02-03T05:38:42.522Z,8.37
2023-02-03T05:41:33.577Z,8.33
2023-02-03T05:43:59.961Z,8.35
2023-02-03T05:46:26.345Z,8.39
2023-02-03T05:48:52.808Z,8.40
2023-02-03T05:51:19.207Z,8.40
2023-02-03T05:53:45.703Z,8.39
2023-02-03T05:56:12.057Z,8.43
2023-02-03T05:58:38.662Z,8.50
2023-02-03T06:01:05.049Z,8.56
2023-02-03T06:03:31.598Z,8.57
2023-02-03T06:05:58.926Z,8.58
2023-02-03T06:08:28.501Z,8.54
2023-02-03T06:11:00.188Z,8.45
2023-02-03T06:13:27.878Z,8.41
2023-02-03T06:15:55.303Z,8.39
2023-02-03T06:18:21.692Z,8.38
2023-02-03T06:20:48.056Z,8.38
2023-02-03T06:23:14.680Z,8.31
2023-02-03T06:25:41.050Z,8.27
2023-02-03T06:28:07.505Z,8.26
2023-02-03T06:30:33.970Z,8.35
2023-02-03T06:33:00.430Z,8.44
2023-02-03T06:35:26.899Z,8.41
2023-02-03T06:37:53.390Z,8.40
2023-02-03T06:40:20.074Z,8.42
2023-02-03T06:42:47.503Z,8.42
2023-02-03T06:45:15.146Z,8.39
2023-02-03T06:47:42.373Z,8.43
2023-02-03T06:50:10.142Z,8.49
2023-02-03T06:52:36.602Z,8.51
2023-02-03T06:55:04.448Z,8.48
2023-02-03T06:57:30.999Z,8.49
2023-02-03T06:59:57.543Z,8.51
2023-02-03T07:02:24.023Z,8.53
2023-02-03T07:04:50.515Z,8.56
2023-02-03T07:07:17.242Z,8.61
2023-02-03T07:09:43.827Z,8.66
2023-02-03T07:12:10.213Z,8.64
2023-02-03T07:14:36.691Z,8.66
2023-02-03T07:17:03.205Z,8.67
2023-02-03T07:19:29.753Z,8.67
2023-02-03T07:21:56.131Z,8.64
2023-02-03T07:24:22.528Z,8.69
2023-02-03T07:26:48.920Z,8.70
2023-02-03T07:29:15.289Z,8.73
2023-02-03T07:31:41.776Z,8.75
2023-02-03T07:34:08.182Z,8.76
2023-02-03T07:36:34.634Z,8.80
2023-02-03T07:39:01.078Z,8.82
2023-02-03T07:41:27.523Z,8.77
2023-02-03T07:43:53.895Z,8.78
2023-02-03T07:46:20.504Z,8.80
2023-02-03T07:48:46.899Z,8.84
2023-02-03T07:51:13.359Z,8.86
2023-02-03T07:53:39.721Z,8.90
2023-02-03T07:56:06.176Z,8.92
2023-02-03T07:58:32.749Z,8.91
2023-02-03T08:00:59.668Z,8.92
2023-02-03T08:03:26.175Z,8.94
2023-02-03T08:05:53.385Z,8.97
2023-02-03T08:08:19.766Z,9.03
2023-02-03T08:10:46.164Z,9.06
2023-02-03T08:13:12.714Z,9.06
2023-02-03T08:15:39.073Z,9.06
2023-02-03T08:18:05.711Z,8.98
2023-02-03T08:20:32.078Z,8.96
2023-02-03T08:22:58.563Z,8.87
2023-02-03T08:25:24.928Z,8.79
2023-02-03T08:27:53.177Z,8.78
2023-02-03T08:30:19.571Z,8.76
2023-02-03T08:32:45.962Z,8.75
2023-02-03T08:35:12.437Z,8.72
2023-02-03T08:37:38.977Z,8.72
2023-02-03T08:40:06.434Z,8.75
2023-02-03T08:42:33.079Z,8.75
2023-02-03T08:44:59.498Z,8.70
2023-02-03T08:47:26.559Z,8.71
2023-02-03T08:49:53.269Z,8.73
2023-02-03T08:52:19.850Z,8.69
2023-02-03T08:54:46.985Z,8.64
2023-02-03T08:57:13.762Z,8.63
2023-02-03T08:59:42.234Z,8.62
2023-02-03T09:02:13.306Z,8.59
2023-02-03T09:04:39.814Z,8.58
2023-02-03T09:07:06.246Z,8.57
2023-02-03T09:09:35.262Z,8.57
2023-02-03T09:12:05.335Z,8.54
2023-02-03T09:14:33.209Z,8.53
2023-02-03T09:17:01.229Z,8.53
2023-02-03T09:19:27.720Z,8.52
2023-02-03T09:21:54.123Z,8.51
2023-02-03T09:24:20.921Z,8.50
2023-02-03T09:26:47.272Z,8.54
2023-02-03T09:29:13.773Z,8.55
2023-02-03T09:31:40.210Z,8.58
2023-02-03T09:34:06.820Z,8.55
2023-02-03T09:36:33.609Z,8.57
2023-02-03T09:39:00.307Z,8.61
2023-02-03T09:41:46.004Z,8.65
2023-02-03T09:44:34.430Z,8.67
2023-02-03T09:47:04.871Z,8.65
2023-02-03T09:49:42.410Z,8.69
2023-02-03T09:52:15.033Z,8.74
2023-02-03T09:54:56.959Z,8.84
2023-02-03T09:57:26.664Z,8.89
2023-02-03T09:59:55.686Z,8.83
2023-02-03T10:02:34.253Z,8.87
2023-02-03T10:05:25.300Z,8.91
2023-02-03T10:08:03.397Z,8.95
2023-02-03T10:10:42.157Z,9.02
2023-02-03T10:13:34.497Z,9.07
2023-02-03T10:16:15.255Z,9.03
2023-02-03T10:18:53.111Z,9.06
2023-02-03T10:21:41.094Z,9.10
2023-02-03T10:24:15.622Z,9.13
2023-02-03T10:26:42.434Z,9.16
2023-02-03T10:29:32.831Z,9.16
2023-02-03T10:32:00.014Z,9.10
2023-02-03T10:34:27.726Z,9.21
2023-02-03T10:36:56.711Z,9.42
2023-02-03T10:39:43.948Z,9.52
2023-02-03T10:42:12.254Z,9.58
2023-02-03T10:44:42.666Z,9.50
2023-02-03T10:47:23.268Z,9.43
2023-02-03T10:49:52.460Z,9.37
2023-02-03T10:52:31.245Z,9.37
2023-02-03T10:54:59.378Z,9.43
2023-02-03T10:57:28.629Z,9.54
2023-02-03T11:00:06.246Z,9.55
2023-02-03T11:02:32.769Z,9.57
2023-02-03T11:05:20.980Z,9.54
2023-02-03T11:07:48.457Z,9.59
2023-02-03T11:10:35.528Z,9.54
2023-02-03T11:13:13.916Z,9.55
2023-02-03T11:15:45.627Z,9.53
2023-02-03T11:18:27.074Z,9.53
2023-02-03T11:20:53.499Z,9.59
2023-02-03T11:23:23.443Z,9.73
2023-02-03T11:25:50.580Z,9.82
2023-02-03T11:28:17.971Z,9.97
2023-02-03T11:30:44.594Z,10.07
2023-02-03T11:33:18.517Z,10.00
2023-02-03T11:35:57.749Z,10.00
2023-02-03T11:38:30.660Z,9.94
2023-02-03T11:41:03.351Z,9.81
2023-02-03T11:43:30.176Z,9.78
2023-02-03T11:46:03.300Z,9.79
2023-02-03T11:48:35.437Z,9.90
2023-02-03T11:51:33.394Z,10.07
2023-02-03T11:54:11.110Z,10.11
2023-02-03T11:56:43.373Z,10.04
2023-02-03T11:59:47.606Z,10.01
2023-02-03T12:02:44.042Z,9.98
2023-02-03T12:05:19.491Z,9.91
2023-02-03T12:08:29.095Z,9.88
2023-02-03T12:11:03.162Z,9.89
2023-02-03T12:13:45.487Z,9.93
2023-02-03T12:16:48.867Z,10.21
2023-02-03T12:19:36.190Z,10.30
2023-02-03T12:22:35.018Z,10.31
2023-02-03T12:25:35.688Z,10.20
2023-02-03T12:28:27.321Z,10.10
2023-02-03T12:31:07.502Z,9.96
2023-02-03T12:33:58.132Z,9.82
2023-02-03T12:36:32.859Z,9.72
2023-02-03T12:39:06.624Z,9.66
2023-02-03T12:41:37.930Z,9.60
2023-02-03T12:44:15.485Z,9.56
2023-02-03T12:46:56.251Z,9.51
2023-02-03T12:49:33.323Z,9.41
2023-02-03T12:52:14.250Z,9.35
2023-02-03T12:54:47.724Z,9.32
2023-02-03T12:57:34.397Z,9.33
2023-02-03T13:00:10.475Z,9.28
2023-02-03T13:03:00.598Z,9.28
2023-02-03T13:05:38.000Z,9.28
2023-02-03T13:08:25.263Z,9.26
2023-02-03T13:11:08.597Z,9.22
2023-02-03T13:13:41.917Z,9.21
2023-02-03T13:16:11.687Z,9.18
2023-02-03T13:18:42.512Z,9.15
2023-02-03T13:21:12.747Z,9.17
2023-02-03T13:23:44.627Z,9.11
2023-02-03T13:26:35.050Z,9.09
2023-02-03T13:29:26.888Z,9.10
2023-02-03T13:32:10.806Z,9.11
2023-02-03T13:34:52.600Z,9.13
2023-02-03T13:37:55.134Z,9.10
2023-02-03T13:40:45.180Z,9.11
2023-02-03T13:43:23.074Z,9.13
2023-02-03T13:45:59.619Z,9.17
2023-02-03T13:48:29.434Z,9.18
2023-02-03T13:51:17.627Z,9.18
2023-02-03T13:53:46.265Z,9.19
2023-02-03T13:56:20.324Z,9.17
2023-02-03T13:59:25.236Z,9.16
2023-02-03T14:01:51.922Z,9.15
2023-02-03T14:04:47.716Z,9.13
2023-02-03T14:07:38.003Z,9.16
2023-02-03T14:10:13.502Z,9.16
2023-02-03T14:12:52.051Z,9.20
2023-02-03T14:15:23.285Z,9.20
2023-02-03T14:18:04.060Z,9.20
2023-02-03T14:20:39.416Z,9.21
2023-02-03T14:23:05.702Z,9.20
2023-02-03T14:25:40.232Z,9.17
2023-02-03T14:28:13.186Z,9.17
2023-02-03T14:31:06.489Z,9.13
2023-02-03T14:33:48.226Z,9.11
2023-02-03T14:36:37.902Z,9.13
2023-02-03T14:39:41.294Z,9.10
2023-02-03T14:42:17.314Z,9.09
2023-02-03T14:45:18.574Z,9.09
2023-02-03T14:47:59.064Z,9.10
2023-02-03T14:50:52.188Z,9.09
2023-02-03T14:53:41.819Z,9.10
2023-02-03T14:56:59.323Z,9.09
2023-02-03T14:59:36.577Z,9.12
2023-02-03T15:02:02.974Z,9.07
2023-02-03T15:04:29.414Z,9.06
2023-02-03T15:06:55.898Z,9.06
2023-02-03T15:09:45.872Z,9.06
2023-02-03T15:12:17.906Z,9.09
2023-02-03T15:14:44.336Z,9.07
2023-02-03T15:17:22.275Z,9.06
2023-02-03T15:19:48.943Z,9.10
2023-02-03T15:22:20.193Z,9.10
2023-02-03T15:24:46.798Z,9.09
2023-02-03T15:27:39.278Z,9.06
2023-02-03T15:30:21.556Z,9.02
2023-02-03T15:33:04.711Z,8.98
2023-02-03T15:35:34.217Z,8.97
2023-02-03T15:38:04.667Z,8.96
2023-02-03T15:40:45.024Z,8.97
2023-02-03T15:43:38.052Z,8.99
2023-02-03T15:46:30.455Z,8.97
2023-02-03T15:49:03.533Z,8.98
2023-02-03T15:51:39.481Z,9.00
2023-02-03T15:54:13.963Z,8.97
2023-02-03T15:56:44.333Z,8.95
2023-02-03T15:59:23.881Z,8.93
2023-02-03T16:01:51.775Z,8.94
2023-02-03T16:04:19.290Z,8.92
2023-02-03T16:06:48.950Z,8.88
2023-02-03T16:09:29.317Z,8.92
2023-02-03T16:12:14.431Z,8.95
2023-02-03T16:14:42.172Z,8.94
2023-02-03T16:17:26.817Z,8.92
2023-02-03T16:20:13.231Z,8.93
2023-02-03T16:23:04.491Z,8.91
2023-02-03T16:25:33.583Z,8.90
2023-02-03T16:28:22.677Z,8.87
2023-02-03T16:31:16.334Z,8.84
2023-02-03T16:34:08.975Z,8.83
2023-02-03T16:36:59.504Z,8.85
2023-02-03T16:39:45.544Z,8.88
2023-02-03T16:42:38.648Z,8.83
2023-02-03T16:45:33.241Z,8.82
2023-02-03T16:48:18.381Z,8.76
2023-02-03T16:50:58.211Z,8.75
2023-02-03T16:53:28.506Z,8.75
2023-02-03T16:55:57.216Z,8.67
2023-02-03T16:58:23.815Z,8.65
2023-02-03T17:00:52.379Z,8.65
2023-02-03T17:03:21.503Z,8.64
2023-02-03T17:05:49.163Z,8.66
2023-02-03T17:08:17.040Z,8.65
2023-02-03T17:10:44.842Z,8.62
2023-02-03T17:13:11.868Z,8.59
2023-02-03T17:15:43.079Z,8.55
2023-02-03T17:18:09.911Z,8.54
2023-02-03T17:20:36.894Z,8.53
2023-02-03T17:23:03.936Z,8.50
2023-02-03T17:25:33.850Z,8.47
2023-02-03T17:28:00.411Z,8.54
2023-02-03T17:30:28.983Z,8.60
2023-02-03T17:32:57.574Z,8.62
2023-02-03T17:35:25.489Z,8.63
2023-02-03T17:37:52.883Z,8.64
2023-02-03T17:54:06.584Z,8.43
2023-02-03T17:56:35.445Z,8.41
2023-02-03T17:59:03.567Z,8.40
2023-02-03T18:01:30.321Z,8.35
2023-02-03T18:04:02.932Z,8.33
2023-02-03T18:06:34.973Z,8.39
2023-02-03T18:09:06.396Z,8.46
2023-02-03T18:11:34.356Z,8.48
2023-02-03T18:14:02.897Z,8.49
2023-02-03T18:16:33.048Z,8.52
2023-02-03T18:19:03.142Z,8.56
2023-02-03T18:21:32.188Z,8.61
2023-02-03T18:24:01.637Z,8.65
2023-02-03T18:26:34.415Z,8.71
2023-02-03T18:29:01.380Z,8.77
2023-02-03T18:31:28.276Z,8.85
2023-02-03T18:33:55.906Z,8.93
2023-02-03T18:36:22.311Z,9.00
2023-02-03T18:38:48.794Z,9.05
2023-02-03T18:41:21.830Z,9.09
2023-02-03T18:43:49.269Z,9.17
2023-02-03T18:46:21.848Z,9.23
2023-02-03T18:48:48.496Z,9.32
2023-02-03T18:51:16.524Z,9.40
2023-02-03T18:53:45.017Z,9.44
2023-02-03T18:56:16.263Z,9.51
2023-02-03T18:58:42.837Z,9.55
2023-02-03T19:01:09.782Z,9.52
2023-02-03T19:03:37.980Z,9.47
2023-02-03T19:06:09.368Z,9.39
2023-02-03T19:08:35.833Z,9.31
2023-02-03T19:11:02.289Z,9.23
2023-02-03T19:13:28.785Z,9.12
2023-02-03T19:15:55.222Z,9.04
2023-02-03T19:18:21.582Z,9.00
2023-02-03T19:20:48.060Z,8.95
2023-02-03T19:23:14.708Z,8.93
2023-02-03T19:25:41.146Z,8.94
2023-02-03T19:28:14.329Z,8.89
2023-02-03T19:30:44.045Z,8.84
2023-02-03T19:33:10.956Z,8.77
2023-02-03T19:35:38.460Z,8.76
2023-02-03T19:38:05.443Z,8.67
2023-02-03T19:40:32.004Z,8.65
2023-02-03T19:42:58.981Z,8.68
2023-02-03T19:45:25.337Z,8.66
2023-02-03T19:47:51.764Z,8.65
2023-02-03T19:50:18.250Z,8.62
2023-02-03T19:52:44.768Z,8.56
2023-02-03T19:55:12.113Z,8.57
2023-02-03T19:57:38.489Z,8.55
2023-02-03T20:00:05.397Z,8.57
2023-02-03T20:02:39.975Z,8.57
2023-02-03T20:05:06.848Z,8.56
2023-02-03T20:07:33.718Z,8.56
2023-02-03T20:10:00.911Z,8.54
2023-02-03T20:12:27.464Z,8.52
2023-02-03T20:14:53.918Z,8.54
2023-02-03T20:17:20.434Z,8.52
2023-02-03T20:19:46.822Z,8.48
2023-02-03T20:22:13.909Z,8.47
2023-02-03T20:24:40.340Z,8.48
2023-02-03T20:27:06.776Z,8.51
2023-02-03T20:29:33.215Z,8.52
2023-02-03T20:31:59.660Z,8.46
2023-02-03T20:34:27.365Z,8.39
2023-02-03T20:36:58.495Z,8.33
2023-02-03T20:39:24.889Z,8.23
2023-02-03T20:41:51.313Z,8.15
2023-02-03T20:44:17.682Z,8.11
2023-02-03T20:46:44.385Z,8.03
2023-02-03T20:49:12.717Z,8.04
2023-02-03T20:51:39.326Z,8.04
2023-02-03T20:54:15.464Z,8.05
2023-02-03T20:56:41.834Z,8.07
2023-02-03T20:59:13.114Z,8.09
2023-02-03T21:01:39.599Z,8.09
2023-02-03T21:04:35.083Z,8.09
2023-02-03T21:07:10.633Z,8.16
2023-02-03T21:09:37.434Z,8.18
2023-02-03T21:12:10.713Z,8.19
2023-02-03T21:14:42.572Z,8.21
2023-02-03T21:17:21.117Z,8.19
2023-02-03T21:19:48.057Z,8.12
2023-02-03T21:22:25.471Z,8.06
2023-02-03T21:24:57.308Z,8.05
2023-02-03T21:27:34.504Z,7.99
2023-02-03T21:30:06.178Z,7.93
2023-02-03T21:32:38.292Z,7.88
2023-02-03T21:35:32.084Z,7.87
2023-02-03T21:38:03.807Z,7.85
2023-02-03T21:40:35.168Z,7.78
2023-02-03T21:43:03.179Z,7.70
2023-02-03T21:45:38.951Z,7.70
2023-02-03T21:48:22.600Z,7.68
2023-02-03T21:50:49.059Z,7.63
2023-02-03T21:53:15.465Z,7.58
2023-02-03T21:55:43.044Z,7.51
2023-02-03T21:58:32.446Z,7.52
2023-02-03T22:01:01.795Z,7.57
2023-02-03T22:03:29.894Z,7.58
2023-02-03T22:06:14.945Z,7.59
2023-02-03T22:08:46.656Z,7.56
2023-02-03T22:11:14.581Z,7.54
2023-02-03T22:13:41.206Z,7.52
2023-02-03T22:16:07.687Z,7.50
2023-02-03T22:18:34.445Z,7.49
2023-02-03T22:21:00.914Z,7.45
2023-02-03T22:23:27.480Z,7.41
2023-02-03T22:25:54.150Z,7.42
2023-02-03T22:28:20.676Z,7.39
2023-02-03T22:30:47.906Z,7.39
2023-02-03T22:33:14.332Z,7.37
2023-02-03T22:35:40.706Z,7.37
2023-02-03T22:38:07.458Z,7.33
2023-02-03T22:40:33.845Z,7.30
2023-02-03T22:43:00.210Z,7.28
2023-02-03T22:45:26.633Z,7.27
2023-02-03T22:47:53.037Z,7.27
2023-02-03T22:50:27.139Z,7.26
2023-02-03T22:53:02.180Z,7.26
2023-02-03T22:55:28.629Z,7.26
2023-02-03T22:57:55.032Z,7.27
2023-02-03T23:00:24.071Z,7.30
2023-02-03T23:02:50.906Z,7.31
2023-02-03T23:05:18.570Z,7.31
2023-02-03T23:07:45.777Z,7.33
2023-02-03T23:10:17.188Z,7.35
2023-02-03T23:12:43.994Z,7.38
2023-02-03T23:15:10.455Z,7.39
2023-02-03T23:17:36.991Z,7.39
2023-02-03T23:20:04.545Z,7.40
2023-02-03T23:22:31.090Z,7.39
2023-02-03T23:24:57.619Z,7.39
2023-02-03T23:27:23.981Z,7.38
2023-02-03T23:29:50.529Z,7.39
2023-02-03T23:32:16.890Z,7.38
2023-02-03T23:35:02.296Z,7.37
2023-02-03T23:37:28.775Z,7.32
2023-02-03T23:39:56.200Z,7.31
2023-02-03T23:42:22.727Z,7.30
2023-02-03T23:44:49.159Z,7.28
2023-02-03T23:47:15.512Z,7.27
2023-02-03T23:49:41.901Z,7.28
2023-02-03T23:52:08.473Z,7.28
2023-02-03T23:54:34.839Z,7.29
2023-02-03T23:57:02.181Z,7.30
2023-02-03T23:59:28.511Z,7.31
